Aérodrome :
LOGIN :

S'inscrire | Disclaimer

   EN    FR    IT 

 










Légende :    VFR   VFR Marginal   IFR   IFR Intensif   IFR Très Intensif
Visi : 
Plafond : 
>= 8 km
>= 3000ft
5 à 8 km
1000 à 3000 ft
1500m à 5 km
500 à 1000 ft
800 à 1500m
200 à 500 ft
< 800m
< 200 ft
Symboles :   Orages  Brouillard  Fortes neiges  Fortes précipitations  Vent > 20 kt
SIGMETs :   Divers  Orages  Givrage  Turbulence  Onde Orograph.  Cendres Volcan.







- Altitude de l'aérodrome : 659 ft
- Code IATA : LYN
- Voir les cartes d'approche


LFLY - Lyon Bron

DERNIER METAR :
  • 180700Z AUTO 00000KT 4000 BR OVC004 04/03 Q1019 TEMPO 0700 FG VV///

METARs EXPIRÉS :
  • 180630Z AUTO VRB03KT 5000 BR BKN005 OVC010 05/03 Q1019 TEMPO 0700 FG VV///
  • 180600Z AUTO 02003KT 4900 BR OVC004 05/03 Q1019 TEMPO 0700 FG VV///
  • 180530Z AUTO 04003KT 4900 BR BKN004 OVC016 05/03 Q1019 TEMPO 0700 FG VV///
  • 180500Z AUTO VRB02KT 5000 BR FEW005 OVC017 05/03 Q1019 TEMPO 0700 FG VV///
  • 180430Z AUTO VRB02KT 5000 BR SCT003 OVC017 05/04 Q1019 TEMPO 0700 FG VV///

TAF TAF LFLY
Valide du 18 à 06h jusqu'au 19 à 06h UTC


180500Z 1806/1906 03005KT 6000 BKN017
TEMPO 1806/1809 3000 BR BKN004
PROB30 1806/1808 0700 FG VV///
BECMG 1812/1814 FEW020
PROB30
TEMPO 1900/1906 BKN013
ATIS : +33 4 72 15 87 96
Pas de NOTAMs connus pour ce terrain.
2 SIGMETs publiés pour la FIR Marseille (LFMM) :
 
Orages noyés dans la masse
LFMM SIGMET 6 VALID 180700/180900 LFPW
LFMM MARSEILLE FIR/UIR EMBD TS OBS AT 0700Z WI N4045 E00500 - N4145 E00500 - N4145 E00615 - N4045 E00615 - N4045 E00500 TOP FL250 STNR WKN=
Orages noyés dans la masse
LFMM SIGMET 5 VALID 180630/180800 LFPW
LFMM MARSEILLE FIR/UIR EMBD TS OBS AT 0630Z WI N4200 E00400 - N4215 E00230 - N4300 E00230 - N4245 E00415 - N4200 E00400 TOP FL250 STNR NC=



MET'MAP, la Météo Aéronautique d'un coup d'oeil ! - Copyright ORBIFLY Décembre 2007 - Disclaimer

ORBIFLY MET'MAP TEAM :

Programmation & Développement : Alexandra Zaïnal
Conception & Développement : Baudouin d'Aumeries
Co-Programmation & Développement : Marc-Olivier Méhu
Soutien technique & logistique : Manuel Goepfert

Contact : metmap@orbifly.com




SOURCES & CREDITS :

   NOAA